Terminal Aerodrome Forecast
Issued by NWS Springfield, MO

Home | Current Version | Previous Version | Text Only | Print | Product List | Glossary On
Versions: 1 2 3 4 5 6 7 8 9 10 11 12 13 14 15 16 17 18
535
FTUS43 KSGF 201120
TAFSGF
TAF
KSGF 201120Z 2012/2112 18012KT P6SM SCT200 WS020/25045KT
     FM201500 21013G20KT P6SM FEW200
     FM201800 25012KT P6SM FEW250
     FM210400 32005KT P6SM SCT070 BKN150
     FM210800 08006KT P6SM BKN030=

USA.gov is the U.S. government's official web portal to all federal, state and local government web resources and services.